sensor_id;sensor_type;location;lat;lon;timestamp;pressure;altitude;pressure_sealevel;temperature;humidity
60437;BME280;46289;51.992;4.498;2023-05-08T00:00:49;102269.81;;;12.53;100.00
60437;BME280;46289;51.992;4.498;2023-05-08T00:02:55;102269.88;;;12.51;100.00
60437;BME280;46289;51.992;4.498;2023-05-08T00:05:01;102279.63;;;12.48;100.00
60437;BME280;46289;51.992;4.498;2023-05-08T00:07:06;102275.38;;;12.42;100.00
60437;BME280;46289;51.992;4.498;2023-05-08T00:09:11;102274.59;;;12.39;100.00
60437;BME280;46289;51.992;4.498;2023-05-08T00:11:19;102277.25;;;12.37;100.00
60437;BME280;46289;51.992;4.498;2023-05-08T00:13:27;102274.72;;;12.34;100.00
60437;BME280;46289;51.992;4.498;2023-05-08T00:15:32;102273.00;;;12.32;100.00
60437;BME280;46289;51.992;4.498;2023-05-08T00:17:42;102271.41;;;12.26;100.00
60437;BME280;46289;51.992;4.498;2023-05-08T00:19:47;102274.94;;;12.25;100.00
60437;BME280;46289;51.992;4.498;2023-05-08T00:21:52;102277.59;;;12.23;100.00
60437;BME280;46289;51.992;4.498;2023-05-08T00:23:57;102276.84;;;12.18;100.00
60437;BME280;46289;51.992;4.498;2023-05-08T00:26:02;102278.72;;;12.15;100.00
60437;BME280;46289;51.992;4.498;2023-05-08T00:28:09;102271.75;;;12.12;100.00
60437;BME280;46289;51.992;4.498;2023-05-08T00:30:15;102277.91;;;12.11;100.00
60437;BME280;46289;51.992;4.498;2023-05-08T00:32:20;102279.66;;;12.12;100.00
60437;BME280;46289;51.992;4.498;2023-05-08T00:34:26;102279.56;;;12.15;100.00
60437;BME280;46289;51.992;4.498;2023-05-08T00:36:31;102279.50;;;12.18;100.00
60437;BME280;46289;51.992;4.498;2023-05-08T00:38:36;102276.84;;;12.18;100.00
60437;BME280;46289;51.992;4.498;2023-05-08T00:40:41;102279.56;;;12.15;100.00
60437;BME280;46289;51.992;4.498;2023-05-08T00:42:47;102281.28;;;12.16;100.00
60437;BME280;46289;51.992;4.498;2023-05-08T00:44:54;102278.78;;;12.12;100.00
60437;BME280;46289;51.992;4.498;2023-05-08T00:46:59;102280.50;;;12.13;100.00
60437;BME280;46289;51.992;4.498;2023-05-08T00:49:05;102286.69;;;12.12;100.00
60437;BME280;46289;51.992;4.498;2023-05-08T00:51:11;102276.22;;;12.08;100.00
60437;BME280;46289;51.992;4.498;2023-05-08T00:53:18;102284.25;;;12.02;100.00
60437;BME280;46289;51.992;4.498;2023-05-08T00:55:24;102269.38;;;12.00;100.00
60437;BME280;46289;51.992;4.498;2023-05-08T00:57:31;102279.97;;;11.98;100.00
60437;BME280;46289;51.992;4.498;2023-05-08T00:59:39;102282.63;;;11.98;100.00
60437;BME280;46289;51.992;4.498;2023-05-08T01:01:49;102280.06;;;11.94;100.00
60437;BME280;46289;51.992;4.498;2023-05-08T01:03:56;102271.25;;;11.95;100.00
60437;BME280;46289;51.992;4.498;2023-05-08T01:06:01;102278.31;;;11.93;100.00
60437;BME280;46289;51.992;4.498;2023-05-08T01:08:07;102278.38;;;11.91;100.00
60437;BME280;46289;51.992;4.498;2023-05-08T01:10:12;102280.22;;;11.88;100.00
60437;BME280;46289;51.992;4.498;2023-05-08T01:12:23;102273.22;;;11.86;100.00
60437;BME280;46289;51.992;4.498;2023-05-08T01:14:39;102275.91;;;11.82;100.00
60437;BME280;46289;51.992;4.498;2023-05-08T01:16:57;102272.41;;;11.81;100.00
60437;BME280;46289;51.992;4.498;2023-05-08T01:19:17;102275.97;;;11.79;100.00
60437;BME280;46289;51.992;4.498;2023-05-08T01:21:32;102269.06;;;11.75;100.00
60437;BME280;46289;51.992;4.498;2023-05-08T01:23:57;102266.53;;;11.70;100.00
60437;BME280;46289;51.992;4.498;2023-05-08T01:26:32;102271.94;;;11.64;100.00
60437;BME280;46289;51.992;4.498;2023-05-08T01:29:22;102272.81;;;11.63;100.00
60437;BME280;46289;51.992;4.498;2023-05-08T01:31:42;102271.19;;;11.57;100.00
60437;BME280;46289;51.992;4.498;2023-05-08T01:34:00;102276.47;;;11.57;100.00
60437;BME280;46289;51.992;4.498;2023-05-08T01:36:17;102280.94;;;11.54;100.00
60437;BME280;46289;51.992;4.498;2023-05-08T01:38:29;102272.19;;;11.53;100.00
60437;BME280;46289;51.992;4.498;2023-05-08T01:40:42;102280.88;;;11.57;100.00
60437;BME280;46289;51.992;4.498;2023-05-08T01:42:57;102280.00;;;11.56;100.00
60437;BME280;46289;51.992;4.498;2023-05-08T01:45:12;102284.34;;;11.59;100.00
60437;BME280;46289;51.992;4.498;2023-05-08T01:47:24;102282.56;;;11.59;100.00
60437;BME280;46289;51.992;4.498;2023-05-08T01:49:37;102285.22;;;11.58;100.00
60437;BME280;46289;51.992;4.498;2023-05-08T01:51:46;102292.25;;;11.57;100.00
60437;BME280;46289;51.992;4.498;2023-05-08T01:53:55;102286.19;;;11.54;100.00
60437;BME280;46289;51.992;4.498;2023-05-08T01:56:09;102288.94;;;11.48;100.00
60437;BME280;46289;51.992;4.498;2023-05-08T01:58:17;102291.56;;;11.48;100.00
60437;BME280;46289;51.992;4.498;2023-05-08T02:00:24;102295.13;;;11.45;100.00
60437;BME280;46289;51.992;4.498;2023-05-08T02:02:31;102296.06;;;11.42;100.00
60437;BME280;46289;51.992;4.498;2023-05-08T02:04:42;102301.38;;;11.41;100.00
60437;BME280;46289;51.992;4.498;2023-05-08T02:06:48;102298.84;;;11.36;100.00
60437;BME280;46289;51.992;4.498;2023-05-08T02:08:55;102299.81;;;11.32;100.00
60437;BME280;46289;51.992;4.498;2023-05-08T02:11:05;102298.06;;;11.31;100.00
60437;BME280;46289;51.992;4.498;2023-05-08T02:13:11;102299.81;;;11.32;100.00
60437;BME280;46289;51.992;4.498;2023-05-08T02:15:20;102298.16;;;11.27;100.00
60437;BME280;46289;51.992;4.498;2023-05-08T02:17:26;102300.78;;;11.27;100.00
60437;BME280;46289;51.992;4.498;2023-05-08T02:19:33;102299.97;;;11.25;100.00
60437;BME280;46289;51.992;4.498;2023-05-08T02:21:43;102301.69;;;11.24;100.00
60437;BME280;46289;51.992;4.498;2023-05-08T02:23:50;102307.00;;;11.23;100.00
60437;BME280;46289;51.992;4.498;2023-05-08T02:25:57;102299.19;;;11.19;100.00
60437;BME280;46289;51.992;4.498;2023-05-08T02:28:05;102304.41;;;11.21;100.00
60437;BME280;46289;51.992;4.498;2023-05-08T02:30:13;102294.00;;;11.16;100.00
60437;BME280;46289;51.992;4.498;2023-05-08T02:32:19;102303.66;;;11.14;100.00
60437;BME280;46289;51.992;4.498;2023-05-08T02:34:26;102296.69;;;11.12;100.00
60437;BME280;46289;51.992;4.498;2023-05-08T02:36:32;102298.50;;;11.10;100.00
60437;BME280;46289;51.992;4.498;2023-05-08T02:38:43;102298.63;;;11.04;100.00
60437;BME280;46289;51.992;4.498;2023-05-08T02:40:52;102301.25;;;11.04;100.00
60437;BME280;46289;51.992;4.498;2023-05-08T02:42:58;102303.03;;;11.02;100.00
60437;BME280;46289;51.992;4.498;2023-05-08T02:45:05;102303.94;;;11.01;100.00
60437;BME280;46289;51.992;4.498;2023-05-08T02:47:15;102300.47;;;10.98;100.00
60437;BME280;46289;51.992;4.498;2023-05-08T02:49:32;102293.50;;;10.96;100.00
60437;BME280;46289;51.992;4.498;2023-05-08T02:51:47;102298.81;;;10.93;100.00
60437;BME280;46289;51.992;4.498;2023-05-08T02:53:58;102294.47;;;10.90;100.00
60437;BME280;46289;51.992;4.498;2023-05-08T02:56:09;102291.88;;;10.87;100.00
60437;BME280;46289;51.992;4.498;2023-05-08T02:58:19;102297.16;;;10.87;100.00
60437;BME280;46289;51.992;4.498;2023-05-08T03:00:29;102296.34;;;10.85;100.00
60437;BME280;46289;51.992;4.498;2023-05-08T03:02:41;102291.06;;;10.85;100.00
60437;BME280;46289;51.992;4.498;2023-05-08T03:04:50;102292.88;;;10.82;100.00
60437;BME280;46289;51.992;4.498;2023-05-08T03:06:57;102290.28;;;10.80;100.00
60437;BME280;46289;51.992;4.498;2023-05-08T03:09:06;102292.06;;;10.78;100.00
60437;BME280;46289;51.992;4.498;2023-05-08T03:11:20;102288.59;;;10.76;100.00
60437;BME280;46289;51.992;4.498;2023-05-08T03:13:30;102292.13;;;10.75;100.00
60437;BME280;46289;51.992;4.498;2023-05-08T03:15:41;102295.69;;;10.72;100.00
60437;BME280;46289;51.992;4.498;2023-05-08T03:17:51;102290.41;;;10.72;100.00
60437;BME280;46289;51.992;4.498;2023-05-08T03:19:59;102291.34;;;10.70;100.00
60437;BME280;46289;51.992;4.498;2023-05-08T03:22:09;102294.84;;;10.69;100.00
60437;BME280;46289;51.992;4.498;2023-05-08T03:24:18;102290.50;;;10.68;100.00
60437;BME280;46289;51.992;4.498;2023-05-08T03:26:24;102289.56;;;10.70;100.00
60437;BME280;46289;51.992;4.498;2023-05-08T03:28:30;102294.84;;;10.69;100.00
60437;BME280;46289;51.992;4.498;2023-05-08T03:30:40;102291.34;;;10.68;100.00
60437;BME280;46289;51.992;4.498;2023-05-08T03:32:46;102299.16;;;10.73;100.00
60437;BME280;46289;51.992;4.498;2023-05-08T03:34:58;102290.34;;;10.75;100.00
60437;BME280;46289;51.992;4.498;2023-05-08T03:37:03;102292.06;;;10.78;100.00
60437;BME280;46289;51.992;4.498;2023-05-08T03:39:09;102299.03;;;10.79;100.00
60437;BME280;46289;51.992;4.498;2023-05-08T03:41:16;102292.91;;;10.80;100.00
60437;BME280;46289;51.992;4.498;2023-05-08T03:43:22;102293.06;;;10.72;100.00
60437;BME280;46289;51.992;4.498;2023-05-08T03:45:28;102294.78;;;10.73;100.00
60437;BME280;46289;51.992;4.498;2023-05-08T03:47:35;102288.53;;;10.79;100.00
60437;BME280;46289;51.992;4.498;2023-05-08T03:49:44;102284.97;;;10.82;100.00
60437;BME280;46289;51.992;4.498;2023-05-08T03:51:49;102284.03;;;10.86;100.00
60437;BME280;46289;51.992;4.498;2023-05-08T03:53:55;102278.78;;;10.84;100.00
60437;BME280;46289;51.992;4.498;2023-05-08T03:56:01;102273.66;;;10.78;100.00
60437;BME280;46289;51.992;4.498;2023-05-08T03:58:17;102269.25;;;10.79;100.00
60437;BME280;46289;51.992;4.498;2023-05-08T04:00:30;102271.09;;;10.73;100.00
60437;BME280;46289;51.992;4.498;2023-05-08T04:02:46;102267.59;;;10.74;100.00
60437;BME280;46289;51.992;4.498;2023-05-08T04:05:01;102272.88;;;10.73;100.00
60437;BME280;46289;51.992;4.498;2023-05-08T04:07:14;102272.03;;;10.71;100.00
60437;BME280;46289;51.992;4.498;2023-05-08T04:09:26;102275.59;;;10.68;100.00
60437;BME280;46289;51.992;4.498;2023-05-08T04:11:41;102281.75;;;10.67;100.00
60437;BME280;46289;51.992;4.498;2023-05-08T04:14:02;102279.03;;;10.72;100.00
60437;BME280;46289;51.992;4.498;2023-05-08T04:16:12;102281.66;;;10.72;100.00
60437;BME280;46289;51.992;4.498;2023-05-08T04:18:23;102279.78;;;10.79;100.00
60437;BME280;46289;51.992;4.498;2023-05-08T04:20:30;102291.06;;;10.85;100.00
60437;BME280;46289;51.992;4.498;2023-05-08T04:22:38;102290.09;;;10.89;100.00
60437;BME280;46289;51.992;4.498;2023-05-08T04:24:45;102284.75;;;10.94;100.00
60437;BME280;46289;51.992;4.498;2023-05-08T04:26:53;102282.94;;;10.97;100.00
60437;BME280;46289;51.992;4.498;2023-05-08T04:29:01;102292.66;;;10.92;100.00
60437;BME280;46289;51.992;4.498;2023-05-08T04:31:07;102291.00;;;10.88;100.00
60437;BME280;46289;51.992;4.498;2023-05-08T04:33:14;102296.22;;;10.91;100.00
60437;BME280;46289;51.992;4.498;2023-05-08T04:35:20;102290.09;;;10.91;100.00
60437;BME280;46289;51.992;4.498;2023-05-08T04:37:26;102299.69;;;10.93;100.00
60437;BME280;46289;51.992;4.498;2023-05-08T04:39:32;102296.06;;;11.01;100.00
60437;BME280;46289;51.992;4.498;2023-05-08T04:41:37;102298.63;;;11.02;100.00
60437;BME280;46289;51.992;4.498;2023-05-08T04:43:42;102300.34;;;11.05;100.00
60437;BME280;46289;51.992;4.498;2023-05-08T04:45:55;102293.22;;;11.10;100.00
60437;BME280;46289;51.992;4.498;2023-05-08T04:48:00;102301.06;;;11.13;100.00
60437;BME280;46289;51.992;4.498;2023-05-08T04:50:06;102302.75;;;11.17;100.00
60437;BME280;46289;51.992;4.498;2023-05-08T04:52:11;102297.41;;;11.20;100.00
60437;BME280;46289;51.992;4.498;2023-05-08T04:54:17;102299.19;;;11.18;100.00
60437;BME280;46289;51.992;4.498;2023-05-08T04:56:22;102294.00;;;11.15;100.00
60437;BME280;46289;51.992;4.498;2023-05-08T04:58:27;102300.81;;;11.25;100.00
60437;BME280;46289;51.992;4.498;2023-05-08T05:00:33;102308.78;;;11.22;100.00
60437;BME280;46289;51.992;4.498;2023-05-08T05:02:42;102308.81;;;11.20;100.00
60437;BME280;46289;51.992;4.498;2023-05-08T05:04:47;102314.91;;;11.23;100.00
60437;BME280;46289;51.992;4.498;2023-05-08T05:06:53;102317.38;;;11.30;100.00
60437;BME280;46289;51.992;4.498;2023-05-08T05:08:58;102312.91;;;11.35;100.00
60437;BME280;46289;51.992;4.498;2023-05-08T05:11:03;102319.97;;;11.33;100.00
60437;BME280;46289;51.992;4.498;2023-05-08T05:13:08;102328.50;;;11.45;100.00
60437;BME280;46289;51.992;4.498;2023-05-08T05:15:13;102327.69;;;11.41;100.00
60437;BME280;46289;51.992;4.498;2023-05-08T05:17:18;102331.13;;;11.45;100.00
60437;BME280;46289;51.992;4.498;2023-05-08T05:19:25;102330.97;;;11.52;100.00
60437;BME280;46289;51.992;4.498;2023-05-08T05:21:33;102326.63;;;11.50;100.00
60437;BME280;46289;51.992;4.498;2023-05-08T05:23:38;102335.31;;;11.55;100.00
60437;BME280;46289;51.992;4.498;2023-05-08T05:25:44;102339.81;;;11.50;100.00
60437;BME280;46289;51.992;4.498;2023-05-08T05:27:49;102343.22;;;11.55;100.00
60437;BME280;46289;51.992;4.498;2023-05-08T05:29:54;102338.78;;;11.57;100.00
60437;BME280;46289;51.992;4.498;2023-05-08T05:31:59;102344.69;;;11.68;100.00
60437;BME280;46289;51.992;4.498;2023-05-08T05:34:06;102345.78;;;11.58;100.00
60437;BME280;46289;51.992;4.498;2023-05-08T05:36:13;102349.94;;;11.70;100.00
60437;BME280;46289;51.992;4.498;2023-05-08T05:38:18;102355.03;;;11.77;100.00
60437;BME280;46289;51.992;4.498;2023-05-08T05:40:23;102351.41;;;11.83;100.00
60437;BME280;46289;51.992;4.498;2023-05-08T05:42:31;102357.34;;;11.93;100.00
60437;BME280;46289;51.992;4.498;2023-05-08T05:44:36;102352.84;;;11.98;100.00
60437;BME280;46289;51.992;4.498;2023-05-08T05:46:41;102357.34;;;11.94;100.00
60437;BME280;46289;51.992;4.498;2023-05-08T05:48:47;102364.16;;;12.03;100.00
60437;BME280;46289;51.992;4.498;2023-05-08T05:50:51;102357.72;;;12.16;100.00
60437;BME280;46289;51.992;4.498;2023-05-08T05:52:59;102359.38;;;12.22;100.00
60437;BME280;46289;51.992;4.498;2023-05-08T05:55:06;102366.34;;;12.23;100.00
60437;BME280;46289;51.992;4.498;2023-05-08T05:57:11;102367.97;;;12.30;100.00
60437;BME280;46289;51.992;4.498;2023-05-08T05:59:19;102364.41;;;12.31;100.00
60437;BME280;46289;51.992;4.498;2023-05-08T06:01:25;102377.41;;;12.39;100.00
60437;BME280;46289;51.992;4.498;2023-05-08T06:03:30;102369.41;;;12.43;100.00
60437;BME280;46289;51.992;4.498;2023-05-08T06:05:37;102377.94;;;12.53;100.00
60437;BME280;46289;51.992;4.498;2023-05-08T06:07:42;102369.06;;;12.57;100.00
60437;BME280;46289;51.992;4.498;2023-05-08T06:09:49;102367.25;;;12.59;100.00
60437;BME280;46289;51.992;4.498;2023-05-08T06:11:57;102374.34;;;12.57;100.00
60437;BME280;46289;51.992;4.498;2023-05-08T06:14:02;102371.47;;;12.66;100.00
60437;BME280;46289;51.992;4.498;2023-05-08T06:16:07;102372.09;;;12.76;100.00
60437;BME280;46289;51.992;4.498;2023-05-08T06:18:13;102372.84;;;12.83;100.00
60437;BME280;46289;51.992;4.498;2023-05-08T06:20:18;102376.25;;;12.86;100.00
60437;BME280;46289;51.992;4.498;2023-05-08T06:22:27;102370.19;;;12.83;100.00
60437;BME280;46289;51.992;4.498;2023-05-08T06:24:32;102375.19;;;12.93;100.00
60437;BME280;46289;51.992;4.498;2023-05-08T06:26:40;102368.88;;;12.99;100.00
60437;BME280;46289;51.992;4.498;2023-05-08T06:28:45;102370.38;;;13.09;100.00
60437;BME280;46289;51.992;4.498;2023-05-08T06:30:50;102371.88;;;13.20;100.00
60437;BME280;46289;51.992;4.498;2023-05-08T06:32:55;102364.06;;;13.15;100.00
60437;BME280;46289;51.992;4.498;2023-05-08T06:35:00;102373.69;;;13.17;100.00
60437;BME280;46289;51.992;4.498;2023-05-08T06:37:06;102369.97;;;13.25;100.00
60437;BME280;46289;51.992;4.498;2023-05-08T06:39:11;102360.09;;;13.33;100.00
60437;BME280;46289;51.992;4.498;2023-05-08T06:41:16;102367.97;;;13.34;100.00
60437;BME280;46289;51.992;4.498;2023-05-08T06:43:25;102365.16;;;13.41;100.00
60437;BME280;46289;51.992;4.498;2023-05-08T06:45:31;102366.28;;;13.32;100.00
60437;BME280;46289;51.992;4.498;2023-05-08T06:47:37;102360.84;;;13.38;100.00
60437;BME280;46289;51.992;4.498;2023-05-08T06:49:42;102354.25;;;13.53;100.00
60437;BME280;46289;51.992;4.498;2023-05-08T06:51:47;102360.66;;;13.44;100.00
60437;BME280;46289;51.992;4.498;2023-05-08T06:53:52;102357.81;;;13.52;100.00
60437;BME280;46289;51.992;4.498;2023-05-08T06:55:57;102360.13;;;13.63;100.00
60437;BME280;46289;51.992;4.498;2023-05-08T06:58:02;102363.50;;;13.68;100.00
60437;BME280;46289;51.992;4.498;2023-05-08T07:00:12;102360.22;;;13.59;100.00
60437;BME280;46289;51.992;4.498;2023-05-08T07:02:17;102358.84;;;13.77;100.00
60437;BME280;46289;51.992;4.498;2023-05-08T07:04:22;102361.50;;;13.76;100.00
60437;BME280;46289;51.992;4.498;2023-05-08T07:06:28;102362.22;;;13.82;100.00
60437;BME280;46289;51.992;4.498;2023-05-08T07:08:33;102351.47;;;13.87;100.00
60437;BME280;46289;51.992;4.498;2023-05-08T07:10:38;102350.38;;;13.94;100.00
60437;BME280;46289;51.992;4.498;2023-05-08T07:12:43;102357.50;;;13.92;99.57
60437;BME280;46289;51.992;4.498;2023-05-08T07:14:48;102341.81;;;13.86;98.98
60437;BME280;46289;51.992;4.498;2023-05-08T07:16:57;102343.22;;;13.98;99.06
60437;BME280;46289;51.992;4.498;2023-05-08T07:19:07;102345.84;;;13.98;98.93
60437;BME280;46289;51.992;4.498;2023-05-08T07:21:12;102352.50;;;13.83;98.61
60437;BME280;46289;51.992;4.498;2023-05-08T07:23:19;102351.25;;;13.95;99.69
60437;BME280;46289;51.992;4.498;2023-05-08T07:25:25;102347.41;;;14.05;98.47
60437;BME280;46289;51.992;4.498;2023-05-08T07:27:29;102346.97;;;14.19;98.57
60437;BME280;46289;51.992;4.498;2023-05-08T07:29:36;102355.44;;;14.30;98.42
60437;BME280;46289;51.992;4.498;2023-05-08T07:31:42;102352.50;;;14.39;97.94
60437;BME280;46289;51.992;4.498;2023-05-08T07:33:50;102350.72;;;14.40;98.13
60437;BME280;46289;51.992;4.498;2023-05-08T07:35:55;102354.44;;;14.62;98.39
60437;BME280;46289;51.992;4.498;2023-05-08T07:38:00;102345.81;;;14.82;98.03
60437;BME280;46289;51.992;4.498;2023-05-08T07:40:06;102349.06;;;14.90;96.23
60437;BME280;46289;51.992;4.498;2023-05-08T07:42:12;102340.47;;;14.84;94.25
60437;BME280;46289;51.992;4.498;2023-05-08T07:44:19;102346.44;;;14.90;94.82
60437;BME280;46289;51.992;4.498;2023-05-08T07:46:27;102344.16;;;15.05;94.43
60437;BME280;46289;51.992;4.498;2023-05-08T07:48:32;102344.63;;;15.16;95.29
60437;BME280;46289;51.992;4.498;2023-05-08T07:50:42;102353.16;;;15.24;94.87
60437;BME280;46289;51.992;4.498;2023-05-08T07:52:47;102350.34;;;15.29;95.15
60437;BME280;46289;51.992;4.498;2023-05-08T07:54:52;102354.28;;;15.42;95.26
60437;BME280;46289;51.992;4.498;2023-05-08T07:56:57;102355.09;;;15.44;94.26
60437;BME280;46289;51.992;4.498;2023-05-08T07:59:02;102352.78;;;15.58;94.16
60437;BME280;46289;51.992;4.498;2023-05-08T08:01:08;102351.56;;;15.20;91.92
60437;BME280;46289;51.992;4.498;2023-05-08T08:03:13;102352.56;;;15.41;93.49
60437;BME280;46289;51.992;4.498;2023-05-08T08:05:19;102356.78;;;15.47;92.96
60437;BME280;46289;51.992;4.498;2023-05-08T08:07:26;102350.59;;;15.23;92.53
60437;BME280;46289;51.992;4.498;2023-05-08T08:09:33;102352.59;;;15.40;92.91
60437;BME280;46289;51.992;4.498;2023-05-08T08:11:38;102350.91;;;15.62;92.11
60437;BME280;46289;51.992;4.498;2023-05-08T08:13:43;102353.75;;;15.81;92.50
60437;BME280;46289;51.992;4.498;2023-05-08T08:15:48;102358.13;;;15.82;91.04
60437;BME280;46289;51.992;4.498;2023-05-08T08:17:54;102352.34;;;15.94;91.04
60437;BME280;46289;51.992;4.498;2023-05-08T08:19:59;102356.69;;;15.97;91.35
60437;BME280;46289;51.992;4.498;2023-05-08T08:22:05;102356.75;;;16.17;90.71
60437;BME280;46289;51.992;4.498;2023-05-08T08:24:13;102352.19;;;16.21;89.16
60437;BME280;46289;51.992;4.498;2023-05-08T08:26:18;102349.66;;;16.40;89.13
60437;BME280;46289;51.992;4.498;2023-05-08T08:28:23;102348.84;;;16.60;88.45
60437;BME280;46289;51.992;4.498;2023-05-08T08:30:31;102356.34;;;16.71;88.42
60437;BME280;46289;51.992;4.498;2023-05-08T08:32:36;102346.78;;;16.66;87.85
60437;BME280;46289;51.992;4.498;2023-05-08T08:34:42;102351.16;;;16.89;87.02
60437;BME280;46289;51.992;4.498;2023-05-08T08:36:47;102349.06;;;17.17;87.63
60437;BME280;46289;51.992;4.498;2023-05-08T08:38:52;102349.47;;;17.28;87.06
60437;BME280;46289;51.992;4.498;2023-05-08T08:41:00;102349.44;;;17.48;85.32
60437;BME280;46289;51.992;4.498;2023-05-08T08:43:06;102348.06;;;17.59;85.60
60437;BME280;46289;51.992;4.498;2023-05-08T08:45:11;102341.13;;;17.75;82.40
60437;BME280;46289;51.992;4.498;2023-05-08T08:47:18;102350.34;;;18.06;84.37
60437;BME280;46289;51.992;4.498;2023-05-08T08:49:28;102337.78;;;18.09;82.90
60437;BME280;46289;51.992;4.498;2023-05-08T08:51:42;102338.38;;;18.33;80.27
60437;BME280;46289;51.992;4.498;2023-05-08T08:53:55;102333.13;;;18.49;80.85
60437;BME280;46289;51.992;4.498;2023-05-08T08:56:05;102333.78;;;18.54;79.11
60437;BME280;46289;51.992;4.498;2023-05-08T08:58:16;102332.16;;;18.86;78.59
60437;BME280;46289;51.992;4.498;2023-05-08T09:00:22;102335.06;;;18.82;76.86
60437;BME280;46289;51.992;4.498;2023-05-08T09:02:31;102331.91;;;18.56;79.89
60437;BME280;46289;51.992;4.498;2023-05-08T09:04:37;102330.75;;;18.43;78.08
60437;BME280;46289;51.992;4.498;2023-05-08T09:06:42;102327.56;;;18.36;76.93
60437;BME280;46289;51.992;4.498;2023-05-08T09:08:47;102332.34;;;19.17;76.73
60437;BME280;46289;51.992;4.498;2023-05-08T09:10:55;102334.16;;;19.83;76.05
60437;BME280;46289;51.992;4.498;2023-05-08T09:13:03;102336.56;;;19.38;75.06
60437;BME280;46289;51.992;4.498;2023-05-08T09:15:09;102336.63;;;19.37;76.36
60437;BME280;46289;51.992;4.498;2023-05-08T09:17:14;102344.63;;;19.37;77.50
60437;BME280;46289;51.992;4.498;2023-05-08T09:19:20;102335.97;;;19.49;75.91
60437;BME280;46289;51.992;4.498;2023-05-08T09:21:29;102334.16;;;19.16;75.64
60437;BME280;46289;51.992;4.498;2023-05-08T09:23:36;102333.63;;;18.92;75.32
60437;BME280;46289;51.992;4.498;2023-05-08T09:25:41;102343.38;;;18.76;75.55
60437;BME280;46289;51.992;4.498;2023-05-08T09:27:46;102340.31;;;18.83;76.29
60437;BME280;46289;51.992;4.498;2023-05-08T09:30:02;102337.69;;;18.64;75.27
60437;BME280;46289;51.992;4.498;2023-05-08T09:32:17;102340.16;;;18.33;75.93
60437;BME280;46289;51.992;4.498;2023-05-08T09:34:24;102341.19;;;18.48;77.88
60437;BME280;46289;51.992;4.498;2023-05-08T09:36:30;102345.06;;;18.77;77.12
60437;BME280;46289;51.992;4.498;2023-05-08T09:38:38;102347.38;;;18.48;75.87
60437;BME280;46289;51.992;4.498;2023-05-08T09:40:44;102351.91;;;18.29;76.10
60437;BME280;46289;51.992;4.498;2023-05-08T09:42:49;102348.72;;;18.57;76.29
60437;BME280;46289;51.992;4.498;2023-05-08T09:44:55;102349.81;;;18.53;75.75
60437;BME280;46289;51.992;4.498;2023-05-08T09:47:13;102344.50;;;18.70;74.70
60437;BME280;46289;51.992;4.498;2023-05-08T09:49:19;102342.88;;;19.20;72.27
60437;BME280;46289;51.992;4.498;2023-05-08T09:51:26;102343.84;;;19.01;75.26
60437;BME280;46289;51.992;4.498;2023-05-08T09:53:32;102341.94;;;19.03;72.86
60437;BME280;46289;51.992;4.498;2023-05-08T09:55:47;102343.03;;;19.66;73.20
60437;BME280;46289;51.992;4.498;2023-05-08T09:57:54;102340.59;;;20.10;70.10
60437;BME280;46289;51.992;4.498;2023-05-08T10:00:00;102340.94;;;19.72;71.33
60437;BME280;46289;51.992;4.498;2023-05-08T10:02:13;102341.34;;;19.65;70.88
60437;BME280;46289;51.992;4.498;2023-05-08T10:04:30;102339.31;;;19.70;70.90
60437;BME280;46289;51.992;4.498;2023-05-08T10:06:36;102345.66;;;19.67;71.41
60437;BME280;46289;51.992;4.498;2023-05-08T10:08:41;102345.56;;;20.16;70.26
60437;BME280;46289;51.992;4.498;2023-05-08T10:10:47;102344.91;;;20.75;67.76
60437;BME280;46289;51.992;4.498;2023-05-08T10:12:54;102347.59;;;20.43;68.48
60437;BME280;46289;51.992;4.498;2023-05-08T10:14:59;102345.88;;;20.88;67.39
60437;BME280;46289;51.992;4.498;2023-05-08T10:17:06;102346.34;;;20.95;65.37
60437;BME280;46289;51.992;4.498;2023-05-08T10:19:18;102343.31;;;20.41;67.07
60437;BME280;46289;51.992;4.498;2023-05-08T10:21:24;102345.88;;;20.42;65.81
60437;BME280;46289;51.992;4.498;2023-05-08T10:23:33;102345.09;;;20.40;67.64
60437;BME280;46289;51.992;4.498;2023-05-08T10:25:43;102347.22;;;20.95;65.41
60437;BME280;46289;51.992;4.498;2023-05-08T10:27:53;102340.75;;;20.23;67.53
60437;BME280;46289;51.992;4.498;2023-05-08T10:30:01;102345.56;;;20.16;67.71
60437;BME280;46289;51.992;4.498;2023-05-08T10:32:09;102343.91;;;20.30;68.08
60437;BME280;46289;51.992;4.498;2023-05-08T10:34:18;102336.28;;;20.24;67.93
60437;BME280;46289;51.992;4.498;2023-05-08T10:36:26;102340.59;;;20.10;68.01
60437;BME280;46289;51.992;4.498;2023-05-08T10:38:31;102342.84;;;20.48;66.62
60437;BME280;46289;51.992;4.498;2023-05-08T10:40:37;102344.91;;;20.89;64.60
60437;BME280;46289;51.992;4.498;2023-05-08T10:42:42;102341.22;;;21.06;64.67
60437;BME280;46289;51.992;4.498;2023-05-08T10:44:49;102342.19;;;21.34;63.11
60437;BME280;46289;51.992;4.498;2023-05-08T10:47:07;102343.88;;;21.06;64.64
60437;BME280;46289;51.992;4.498;2023-05-08T10:49:24;102334.41;;;20.86;65.23
60437;BME280;46289;51.992;4.498;2023-05-08T10:51:37;102332.72;;;20.99;65.50
60437;BME280;46289;51.992;4.498;2023-05-08T10:53:50;102332.00;;;21.55;64.27
60437;BME280;46289;51.992;4.498;2023-05-08T10:55:56;102328.19;;;21.44;63.08
60437;BME280;46289;51.992;4.498;2023-05-08T10:58:02;102331.25;;;21.53;64.42
60437;BME280;46289;51.992;4.498;2023-05-08T11:00:08;102333.31;;;20.74;65.65
60437;BME280;46289;51.992;4.498;2023-05-08T11:02:14;102335.41;;;21.14;64.21